sensor_id;sensor_type;location;lat;lon;timestamp;P1;durP1;ratioP1;P2;durP2;ratioP2
11348;SDS011;5729;43.570;27.826;2023-05-27T00:02:24;11.75;;;7.60;;
11348;SDS011;5729;43.570;27.826;2023-05-27T00:04:50;9.40;;;7.30;;
11348;SDS011;5729;43.570;27.826;2023-05-27T00:07:16;10.00;;;7.78;;
11348;SDS011;5729;43.570;27.826;2023-05-27T00:09:41;9.98;;;7.53;;
11348;SDS011;5729;43.570;27.826;2023-05-27T00:12:07;10.88;;;7.75;;
11348;SDS011;5729;43.570;27.826;2023-05-27T00:14:32;9.27;;;7.82;;
11348;SDS011;5729;43.570;27.826;2023-05-27T00:16:58;11.52;;;8.25;;
11348;SDS011;5729;43.570;27.826;2023-05-27T00:19:24;10.88;;;7.55;;
11348;SDS011;5729;43.570;27.826;2023-05-27T00:21:49;11.65;;;7.70;;
11348;SDS011;5729;43.570;27.826;2023-05-27T00:24:18;9.65;;;7.13;;
11348;SDS011;5729;43.570;27.826;2023-05-27T00:26:45;10.30;;;7.25;;
11348;SDS011;5729;43.570;27.826;2023-05-27T00:29:10;11.48;;;7.63;;
11348;SDS011;5729;43.570;27.826;2023-05-27T00:31:36;9.02;;;6.60;;
11348;SDS011;5729;43.570;27.826;2023-05-27T00:34:01;10.15;;;7.05;;
11348;SDS011;5729;43.570;27.826;2023-05-27T00:36:27;9.50;;;6.72;;
11348;SDS011;5729;43.570;27.826;2023-05-27T00:38:52;9.68;;;6.07;;
11348;SDS011;5729;43.570;27.826;2023-05-27T00:41:17;13.38;;;7.40;;
11348;SDS011;5729;43.570;27.826;2023-05-27T00:43:43;8.70;;;7.03;;
11348;SDS011;5729;43.570;27.826;2023-05-27T00:46:09;8.55;;;6.60;;
11348;SDS011;5729;43.570;27.826;2023-05-27T00:48:34;7.88;;;6.50;;
11348;SDS011;5729;43.570;27.826;2023-05-27T00:51:00;8.43;;;6.70;;
11348;SDS011;5729;43.570;27.826;2023-05-27T00:53:26;7.60;;;6.53;;
11348;SDS011;5729;43.570;27.826;2023-05-27T00:55:54;11.43;;;7.20;;
11348;SDS011;5729;43.570;27.826;2023-05-27T00:58:23;12.43;;;6.95;;
11348;SDS011;5729;43.570;27.826;2023-05-27T01:00:49;8.20;;;7.07;;
11348;SDS011;5729;43.570;27.826;2023-05-27T01:03:14;7.97;;;6.57;;
11348;SDS011;5729;43.570;27.826;2023-05-27T01:05:40;9.68;;;6.43;;
11348;SDS011;5729;43.570;27.826;2023-05-27T01:11:07;10.80;;;6.85;;
11348;SDS011;5729;43.570;27.826;2023-05-27T01:13:36;11.52;;;7.32;;
11348;SDS011;5729;43.570;27.826;2023-05-27T01:16:05;10.85;;;6.93;;
11348;SDS011;5729;43.570;27.826;2023-05-27T01:18:36;11.85;;;7.25;;
11348;SDS011;5729;43.570;27.826;2023-05-27T01:21:05;7.03;;;6.32;;
11348;SDS011;5729;43.570;27.826;2023-05-27T01:23:34;12.45;;;7.32;;
11348;SDS011;5729;43.570;27.826;2023-05-27T01:26:03;9.80;;;6.55;;
11348;SDS011;5729;43.570;27.826;2023-05-27T01:28:32;11.48;;;7.05;;
11348;SDS011;5729;43.570;27.826;2023-05-27T01:31:01;9.73;;;7.32;;
11348;SDS011;5729;43.570;27.826;2023-05-27T01:33:42;12.48;;;7.13;;
11348;SDS011;5729;43.570;27.826;2023-05-27T01:36:16;8.02;;;7.22;;
11348;SDS011;5729;43.570;27.826;2023-05-27T01:38:46;9.82;;;7.00;;
11348;SDS011;5729;43.570;27.826;2023-05-27T01:41:13;13.63;;;7.35;;
11348;SDS011;5729;43.570;27.826;2023-05-27T01:43:40;11.00;;;7.68;;
11348;SDS011;5729;43.570;27.826;2023-05-27T01:46:06;14.13;;;7.40;;
11348;SDS011;5729;43.570;27.826;2023-05-27T01:48:31;9.02;;;6.97;;
11348;SDS011;5729;43.570;27.826;2023-05-27T01:50:57;9.52;;;7.22;;
11348;SDS011;5729;43.570;27.826;2023-05-27T01:53:22;11.60;;;7.78;;
11348;SDS011;5729;43.570;27.826;2023-05-27T01:55:48;10.95;;;7.97;;
11348;SDS011;5729;43.570;27.826;2023-05-27T01:58:13;10.75;;;7.68;;
11348;SDS011;5729;43.570;27.826;2023-05-27T02:00:39;13.05;;;7.53;;
11348;SDS011;5729;43.570;27.826;2023-05-27T02:03:04;10.23;;;7.80;;
11348;SDS011;5729;43.570;27.826;2023-05-27T02:05:30;9.60;;;7.53;;
11348;SDS011;5729;43.570;27.826;2023-05-27T02:07:55;11.48;;;7.70;;
11348;SDS011;5729;43.570;27.826;2023-05-27T02:10:21;12.70;;;7.93;;
11348;SDS011;5729;43.570;27.826;2023-05-27T02:12:46;10.00;;;7.78;;
11348;SDS011;5729;43.570;27.826;2023-05-27T02:15:15;12.25;;;7.90;;
11348;SDS011;5729;43.570;27.826;2023-05-27T02:17:40;8.25;;;7.45;;
11348;SDS011;5729;43.570;27.826;2023-05-27T02:20:06;8.93;;;7.82;;
11348;SDS011;5729;43.570;27.826;2023-05-27T02:22:31;13.30;;;7.80;;
11348;SDS011;5729;43.570;27.826;2023-05-27T02:24:57;8.93;;;7.75;;
11348;SDS011;5729;43.570;27.826;2023-05-27T02:27:22;8.55;;;7.65;;
11348;SDS011;5729;43.570;27.826;2023-05-27T02:29:48;8.77;;;7.88;;
11348;SDS011;5729;43.570;27.826;2023-05-27T02:32:13;10.50;;;8.00;;
11348;SDS011;5729;43.570;27.826;2023-05-27T02:34:39;9.00;;;8.00;;
11348;SDS011;5729;43.570;27.826;2023-05-27T02:37:06;10.77;;;8.35;;
11348;SDS011;5729;43.570;27.826;2023-05-27T02:39:32;11.50;;;8.57;;
11348;SDS011;5729;43.570;27.826;2023-05-27T02:41:57;10.93;;;7.82;;
11348;SDS011;5729;43.570;27.826;2023-05-27T02:44:23;8.55;;;7.63;;
11348;SDS011;5729;43.570;27.826;2023-05-27T02:46:48;10.93;;;7.85;;
11348;SDS011;5729;43.570;27.826;2023-05-27T02:49:13;9.43;;;7.60;;
11348;SDS011;5729;43.570;27.826;2023-05-27T02:51:40;11.45;;;7.63;;
11348;SDS011;5729;43.570;27.826;2023-05-27T02:54:05;10.05;;;7.72;;
11348;SDS011;5729;43.570;27.826;2023-05-27T02:56:31;12.10;;;8.23;;
11348;SDS011;5729;43.570;27.826;2023-05-27T02:58:56;10.02;;;7.53;;
11348;SDS011;5729;43.570;27.826;2023-05-27T03:01:22;13.73;;;7.35;;
11348;SDS011;5729;43.570;27.826;2023-05-27T03:03:47;8.43;;;7.60;;
11348;SDS011;5729;43.570;27.826;2023-05-27T03:06:13;8.10;;;7.30;;
11348;SDS011;5729;43.570;27.826;2023-05-27T03:08:38;10.02;;;7.70;;
11348;SDS011;5729;43.570;27.826;2023-05-27T03:11:03;9.93;;;7.05;;
11348;SDS011;5729;43.570;27.826;2023-05-27T03:13:29;12.23;;;6.93;;
11348;SDS011;5729;43.570;27.826;2023-05-27T03:15:54;10.75;;;7.75;;
11348;SDS011;5729;43.570;27.826;2023-05-27T03:18:20;10.10;;;7.32;;
11348;SDS011;5729;43.570;27.826;2023-05-27T03:20:46;14.05;;;7.10;;
11348;SDS011;5729;43.570;27.826;2023-05-27T03:23:12;8.50;;;7.25;;
11348;SDS011;5729;43.570;27.826;2023-05-27T03:25:37;7.72;;;6.93;;
11348;SDS011;5729;43.570;27.826;2023-05-27T03:28:03;8.68;;;7.00;;
11348;SDS011;5729;43.570;27.826;2023-05-27T03:30:28;10.98;;;7.18;;
11348;SDS011;5729;43.570;27.826;2023-05-27T03:32:54;7.85;;;7.05;;
11348;SDS011;5729;43.570;27.826;2023-05-27T03:35:19;10.25;;;7.15;;
11348;SDS011;5729;43.570;27.826;2023-05-27T03:37:44;9.77;;;6.88;;
11348;SDS011;5729;43.570;27.826;2023-05-27T03:40:11;10.85;;;6.88;;
11348;SDS011;5729;43.570;27.826;2023-05-27T03:42:36;7.65;;;6.40;;
11348;SDS011;5729;43.570;27.826;2023-05-27T03:45:02;13.80;;;7.40;;
11348;SDS011;5729;43.570;27.826;2023-05-27T03:47:28;10.27;;;7.13;;
11348;SDS011;5729;43.570;27.826;2023-05-27T03:49:53;10.27;;;7.05;;
11348;SDS011;5729;43.570;27.826;2023-05-27T03:52:19;11.65;;;7.25;;
11348;SDS011;5729;43.570;27.826;2023-05-27T03:54:44;10.45;;;6.97;;
11348;SDS011;5729;43.570;27.826;2023-05-27T03:57:10;8.32;;;6.50;;
11348;SDS011;5729;43.570;27.826;2023-05-27T03:59:36;9.80;;;6.60;;
11348;SDS011;5729;43.570;27.826;2023-05-27T04:02:02;11.75;;;7.15;;
11348;SDS011;5729;43.570;27.826;2023-05-27T04:04:28;11.27;;;7.07;;
11348;SDS011;5729;43.570;27.826;2023-05-27T04:06:53;12.25;;;6.95;;
11348;SDS011;5729;43.570;27.826;2023-05-27T04:09:20;8.35;;;7.30;;
11348;SDS011;5729;43.570;27.826;2023-05-27T04:11:45;9.48;;;7.05;;
11348;SDS011;5729;43.570;27.826;2023-05-27T04:14:11;10.30;;;6.85;;
11348;SDS011;5729;43.570;27.826;2023-05-27T04:16:36;8.68;;;7.00;;
11348;SDS011;5729;43.570;27.826;2023-05-27T04:19:02;7.95;;;7.15;;
11348;SDS011;5729;43.570;27.826;2023-05-27T04:21:28;8.95;;;7.07;;
11348;SDS011;5729;43.570;27.826;2023-05-27T04:23:53;7.85;;;7.05;;
11348;SDS011;5729;43.570;27.826;2023-05-27T04:26:19;13.02;;;6.88;;
11348;SDS011;5729;43.570;27.826;2023-05-27T04:28:45;9.70;;;6.45;;
11348;SDS011;5729;43.570;27.826;2023-05-27T04:31:11;7.90;;;7.10;;
11348;SDS011;5729;43.570;27.826;2023-05-27T04:33:41;10.23;;;6.70;;
11348;SDS011;5729;43.570;27.826;2023-05-27T04:36:07;10.20;;;7.28;;
11348;SDS011;5729;43.570;27.826;2023-05-27T04:38:33;9.18;;;6.63;;
11348;SDS011;5729;43.570;27.826;2023-05-27T04:40:58;9.18;;;7.40;;
11348;SDS011;5729;43.570;27.826;2023-05-27T04:43:24;10.13;;;7.50;;
11348;SDS011;5729;43.570;27.826;2023-05-27T04:45:51;8.70;;;6.10;;
11348;SDS011;5729;43.570;27.826;2023-05-27T04:48:17;10.35;;;6.60;;
11348;SDS011;5729;43.570;27.826;2023-05-27T04:50:43;7.07;;;6.32;;
11348;SDS011;5729;43.570;27.826;2023-05-27T04:53:08;10.93;;;6.85;;
11348;SDS011;5729;43.570;27.826;2023-05-27T04:55:34;9.13;;;7.15;;
11348;SDS011;5729;43.570;27.826;2023-05-27T04:58:00;11.15;;;6.93;;
11348;SDS011;5729;43.570;27.826;2023-05-27T05:00:29;9.10;;;6.75;;
11348;SDS011;5729;43.570;27.826;2023-05-27T05:03:14;8.43;;;6.63;;
11348;SDS011;5729;43.570;27.826;2023-05-27T05:05:47;9.20;;;6.78;;
11348;SDS011;5729;43.570;27.826;2023-05-27T05:08:17;7.03;;;6.18;;
11348;SDS011;5729;43.570;27.826;2023-05-27T05:10:46;10.40;;;6.22;;
11348;SDS011;5729;43.570;27.826;2023-05-27T05:13:13;10.45;;;6.28;;
11348;SDS011;5729;43.570;27.826;2023-05-27T05:15:39;11.80;;;6.72;;
11348;SDS011;5729;43.570;27.826;2023-05-27T05:18:05;8.10;;;6.32;;
11348;SDS011;5729;43.570;27.826;2023-05-27T05:20:31;10.02;;;7.20;;
11348;SDS011;5729;43.570;27.826;2023-05-27T05:22:57;8.82;;;6.63;;
11348;SDS011;5729;43.570;27.826;2023-05-27T05:25:23;8.38;;;6.35;;
11348;SDS011;5729;43.570;27.826;2023-05-27T05:27:48;8.32;;;6.88;;
11348;SDS011;5729;43.570;27.826;2023-05-27T05:30:14;8.43;;;7.00;;
11348;SDS011;5729;43.570;27.826;2023-05-27T05:32:39;8.18;;;6.85;;
11348;SDS011;5729;43.570;27.826;2023-05-27T05:35:05;10.88;;;7.00;;
11348;SDS011;5729;43.570;27.826;2023-05-27T05:37:31;14.00;;;6.72;;
11348;SDS011;5729;43.570;27.826;2023-05-27T05:39:56;10.55;;;7.20;;
11348;SDS011;5729;43.570;27.826;2023-05-27T05:42:22;9.32;;;6.70;;
11348;SDS011;5729;43.570;27.826;2023-05-27T05:44:49;7.82;;;6.75;;
11348;SDS011;5729;43.570;27.826;2023-05-27T05:47:14;15.13;;;8.02;;
11348;SDS011;5729;43.570;27.826;2023-05-27T05:49:40;11.25;;;8.32;;
11348;SDS011;5729;43.570;27.826;2023-05-27T05:52:05;11.77;;;8.13;;
11348;SDS011;5729;43.570;27.826;2023-05-27T05:54:30;13.40;;;8.77;;
11348;SDS011;5729;43.570;27.826;2023-05-27T05:56:56;13.35;;;8.02;;
11348;SDS011;5729;43.570;27.826;2023-05-27T05:59:21;13.57;;;8.18;;
11348;SDS011;5729;43.570;27.826;2023-05-27T06:01:47;11.48;;;8.57;;
11348;SDS011;5729;43.570;27.826;2023-05-27T06:04:12;14.13;;;8.75;;
11348;SDS011;5729;43.570;27.826;2023-05-27T06:06:38;12.63;;;8.43;;
11348;SDS011;5729;43.570;27.826;2023-05-27T06:09:05;18.55;;;8.13;;
11348;SDS011;5729;43.570;27.826;2023-05-27T06:11:30;15.60;;;8.05;;
11348;SDS011;5729;43.570;27.826;2023-05-27T06:13:56;10.27;;;8.05;;
11348;SDS011;5729;43.570;27.826;2023-05-27T06:16:21;10.88;;;7.82;;
11348;SDS011;5729;43.570;27.826;2023-05-27T06:18:47;10.85;;;7.90;;
11348;SDS011;5729;43.570;27.826;2023-05-27T06:21:12;12.10;;;7.60;;
11348;SDS011;5729;43.570;27.826;2023-05-27T06:23:38;12.45;;;7.60;;
11348;SDS011;5729;43.570;27.826;2023-05-27T06:26:03;8.25;;;7.30;;
11348;SDS011;5729;43.570;27.826;2023-05-27T06:28:29;9.25;;;7.30;;
11348;SDS011;5729;43.570;27.826;2023-05-27T06:30:54;11.55;;;8.27;;
11348;SDS011;5729;43.570;27.826;2023-05-27T06:33:20;11.43;;;8.95;;
11348;SDS011;5729;43.570;27.826;2023-05-27T06:35:45;9.40;;;7.60;;
11348;SDS011;5729;43.570;27.826;2023-05-27T06:38:10;9.05;;;7.55;;
11348;SDS011;5729;43.570;27.826;2023-05-27T06:40:36;8.50;;;7.03;;
11348;SDS011;5729;43.570;27.826;2023-05-27T06:43:01;12.48;;;6.93;;
11348;SDS011;5729;43.570;27.826;2023-05-27T06:45:27;11.68;;;7.10;;
11348;SDS011;5729;43.570;27.826;2023-05-27T06:47:52;10.95;;;7.53;;
11348;SDS011;5729;43.570;27.826;2023-05-27T06:50:18;10.20;;;6.82;;
11348;SDS011;5729;43.570;27.826;2023-05-27T06:52:43;6.95;;;6.25;;
11348;SDS011;5729;43.570;27.826;2023-05-27T06:55:09;8.32;;;7.45;;
11348;SDS011;5729;43.570;27.826;2023-05-27T06:57:34;10.40;;;7.72;;
11348;SDS011;5729;43.570;27.826;2023-05-27T07:00:00;9.13;;;7.95;;
11348;SDS011;5729;43.570;27.826;2023-05-27T07:02:25;12.15;;;7.30;;
11348;SDS011;5729;43.570;27.826;2023-05-27T07:04:50;14.15;;;7.25;;
11348;SDS011;5729;43.570;27.826;2023-05-27T07:07:19;9.75;;;6.55;;
11348;SDS011;5729;43.570;27.826;2023-05-27T07:09:44;8.50;;;6.32;;
11348;SDS011;5729;43.570;27.826;2023-05-27T07:12:10;8.73;;;6.57;;
11348;SDS011;5729;43.570;27.826;2023-05-27T07:14:35;9.55;;;6.00;;
11348;SDS011;5729;43.570;27.826;2023-05-27T07:17:01;10.60;;;6.68;;
11348;SDS011;5729;43.570;27.826;2023-05-27T07:19:26;8.23;;;6.18;;
11348;SDS011;5729;43.570;27.826;2023-05-27T07:21:52;11.32;;;6.68;;
11348;SDS011;5729;43.570;27.826;2023-05-27T07:24:17;8.55;;;6.43;;
11348;SDS011;5729;43.570;27.826;2023-05-27T07:26:42;7.25;;;6.22;;
11348;SDS011;5729;43.570;27.826;2023-05-27T07:29:08;7.88;;;6.60;;
11348;SDS011;5729;43.570;27.826;2023-05-27T07:31:33;8.00;;;7.20;;
11348;SDS011;5729;43.570;27.826;2023-05-27T07:33:59;12.98;;;7.45;;
11348;SDS011;5729;43.570;27.826;2023-05-27T07:36:24;7.90;;;7.20;;
11348;SDS011;5729;43.570;27.826;2023-05-27T07:38:50;7.88;;;6.85;;
11348;SDS011;5729;43.570;27.826;2023-05-27T07:41:15;8.43;;;7.60;;
11348;SDS011;5729;43.570;27.826;2023-05-27T07:43:41;8.70;;;7.82;;
11348;SDS011;5729;43.570;27.826;2023-05-27T07:46:06;8.57;;;7.30;;
11348;SDS011;5729;43.570;27.826;2023-05-27T07:48:32;9.65;;;6.95;;
11348;SDS011;5729;43.570;27.826;2023-05-27T07:50:57;8.52;;;6.45;;
11348;SDS011;5729;43.570;27.826;2023-05-27T07:53:23;10.27;;;6.97;;
11348;SDS011;5729;43.570;27.826;2023-05-27T07:55:48;9.43;;;6.95;;
11348;SDS011;5729;43.570;27.826;2023-05-27T07:58:14;13.52;;;7.55;;
11348;SDS011;5729;43.570;27.826;2023-05-27T08:00:39;9.82;;;7.13;;
11348;SDS011;5729;43.570;27.826;2023-05-27T08:03:05;11.13;;;7.15;;
11348;SDS011;5729;43.570;27.826;2023-05-27T08:05:31;11.07;;;8.27;;
11348;SDS011;5729;43.570;27.826;2023-05-27T08:07:57;18.00;;;9.75;;
11348;SDS011;5729;43.570;27.826;2023-05-27T08:10:23;11.02;;;7.70;;
11348;SDS011;5729;43.570;27.826;2023-05-27T08:12:48;10.27;;;8.07;;
11348;SDS011;5729;43.570;27.826;2023-05-27T08:15:14;13.00;;;10.00;;
11348;SDS011;5729;43.570;27.826;2023-05-27T08:17:39;11.82;;;8.43;;
11348;SDS011;5729;43.570;27.826;2023-05-27T08:20:05;14.55;;;8.93;;
11348;SDS011;5729;43.570;27.826;2023-05-27T08:22:31;7.95;;;6.78;;
11348;SDS011;5729;43.570;27.826;2023-05-27T08:24:57;8.30;;;5.93;;
11348;SDS011;5729;43.570;27.826;2023-05-27T08:27:41;8.82;;;6.03;;
11348;SDS011;5729;43.570;27.826;2023-05-27T08:30:11;6.18;;;5.35;;
11348;SDS011;5729;43.570;27.826;2023-05-27T08:32:38;11.35;;;5.32;;
11348;SDS011;5729;43.570;27.826;2023-05-27T08:35:05;8.93;;;4.78;;
11348;SDS011;5729;43.570;27.826;2023-05-27T08:37:31;7.72;;;6.05;;
11348;SDS011;5729;43.570;27.826;2023-05-27T08:39:57;6.30;;;4.78;;
11348;SDS011;5729;43.570;27.826;2023-05-27T08:42:23;6.85;;;6.15;;
11348;SDS011;5729;43.570;27.826;2023-05-27T08:44:49;11.02;;;6.38;;
11348;SDS011;5729;43.570;27.826;2023-05-27T08:47:15;8.50;;;6.28;;
11348;SDS011;5729;43.570;27.826;2023-05-27T08:49:42;9.20;;;5.80;;
11348;SDS011;5729;43.570;27.826;2023-05-27T08:52:09;8.20;;;5.22;;
11348;SDS011;5729;43.570;27.826;2023-05-27T08:54:36;6.80;;;5.07;;
11348;SDS011;5729;43.570;27.826;2023-05-27T08:57:04;11.98;;;4.93;;
11348;SDS011;5729;43.570;27.826;2023-05-27T08:59:33;4.22;;;3.83;;
11348;SDS011;5729;43.570;27.826;2023-05-27T09:02:00;6.85;;;4.38;;
11348;SDS011;5729;43.570;27.826;2023-05-27T09:04:27;9.30;;;3.50;;
11348;SDS011;5729;43.570;27.826;2023-05-27T09:06:53;6.03;;;3.67;;
11348;SDS011;5729;43.570;27.826;2023-05-27T09:09:19;3.90;;;3.50;;
11348;SDS011;5729;43.570;27.826;2023-05-27T09:11:45;5.03;;;3.90;;
11348;SDS011;5729;43.570;27.826;2023-05-27T09:14:20;7.72;;;3.45;;
11348;SDS011;5729;43.570;27.826;2023-05-27T09:16:46;4.43;;;3.47;;
11348;SDS011;5729;43.570;27.826;2023-05-27T09:19:15;5.78;;;3.30;;
11348;SDS011;5729;43.570;27.826;2023-05-27T09:21:41;5.25;;;3.40;;
11348;SDS011;5729;43.570;27.826;2023-05-27T09:24:08;3.80;;;3.47;;
11348;SDS011;5729;43.570;27.826;2023-05-27T09:26:35;4.22;;;3.00;;
11348;SDS011;5729;43.570;27.826;2023-05-27T09:29:05;6.15;;;3.20;;
11348;SDS011;5729;43.570;27.826;2023-05-27T09:31:31;6.13;;;3.45;;
11348;SDS011;5729;43.570;27.826;2023-05-27T09:33:56;4.97;;;3.65;;
11348;SDS011;5729;43.570;27.826;2023-05-27T09:36:22;5.75;;;3.38;;
11348;SDS011;5729;43.570;27.826;2023-05-27T09:38:47;6.47;;;3.60;;
11348;SDS011;5729;43.570;27.826;2023-05-27T09:41:13;3.15;;;2.85;;
11348;SDS011;5729;43.570;27.826;2023-05-27T09:43:38;6.15;;;3.90;;
11348;SDS011;5729;43.570;27.826;2023-05-27T09:46:07;8.63;;;3.50;;
11348;SDS011;5729;43.570;27.826;2023-05-27T09:48:36;22.27;;;4.20;;
11348;SDS011;5729;43.570;27.826;2023-05-27T09:51:03;5.07;;;3.13;;
11348;SDS011;5729;43.570;27.826;2023-05-27T09:53:28;5.85;;;3.70;;
11348;SDS011;5729;43.570;27.826;2023-05-27T09:55:56;5.05;;;3.72;;
11348;SDS011;5729;43.570;27.826;2023-05-27T09:58:22;4.78;;;3.20;;
11348;SDS011;5729;43.570;27.826;2023-05-27T10:00:49;5.35;;;3.50;;
11348;SDS011;5729;43.570;27.826;2023-05-27T10:03:22;10.32;;;3.63;;
11348;SDS011;5729;43.570;27.826;2023-05-27T10:05:50;6.28;;;3.75;;
11348;SDS011;5729;43.570;27.826;2023-05-27T10:08:16;5.25;;;3.67;;
11348;SDS011;5729;43.570;27.826;2023-05-27T10:10:43;5.75;;;3.42;;
11348;SDS011;5729;43.570;27.826;2023-05-27T10:13:10;3.70;;;3.40;;
11348;SDS011;5729;43.570;27.826;2023-05-27T10:15:36;6.43;;;3.30;;
11348;SDS011;5729;43.570;27.826;2023-05-27T10:18:05;4.90;;;3.20;;
11348;SDS011;5729;43.570;27.826;2023-05-27T10:23:13;4.90;;;2.90;;
11348;SDS011;5729;43.570;27.826;2023-05-27T10:25:53;4.07;;;3.30;;
11348;SDS011;5729;43.570;27.826;2023-05-27T10:31:04;6.70;;;3.42;;
11348;SDS011;5729;43.570;27.826;2023-05-27T10:33:48;5.45;;;3.58;;
11348;SDS011;5729;43.570;27.826;2023-05-27T10:36:22;4.22;;;3.28;;
11348;SDS011;5729;43.570;27.826;2023-05-27T10:39:03;6.72;;;3.00;;
11348;SDS011;5729;43.570;27.826;2023-05-27T10:41:50;7.25;;;3.40;;
11348;SDS011;5729;43.570;27.826;2023-05-27T10:47:01;6.22;;;3.30;;
11348;SDS011;5729;43.570;27.826;2023-05-27T10:49:35;6.22;;;3.38;;
11348;SDS011;5729;43.570;27.826;2023-05-27T10:52:07;4.40;;;3.65;;
11348;SDS011;5729;43.570;27.826;2023-05-27T10:54:41;4.85;;;3.42;;
11348;SDS011;5729;43.570;27.826;2023-05-27T10:57:08;8.65;;;3.92;;
11348;SDS011;5729;43.570;27.826;2023-05-27T10:59:53;8.50;;;3.60;;
11348;SDS011;5729;43.570;27.826;2023-05-27T11:02:20;9.35;;;4.65;;
11348;SDS011;5729;43.570;27.826;2023-05-27T11:04:48;11.13;;;4.88;;
11348;SDS011;5729;43.570;27.826;2023-05-27T11:07:22;14.07;;;5.53;;
11348;SDS011;5729;43.570;27.826;2023-05-27T11:09:50;10.98;;;5.32;;
11348;SDS011;5729;43.570;27.826;2023-05-27T11:12:17;11.02;;;6.10;;
11348;SDS011;5729;43.570;27.826;2023-05-27T11:14:45;8.45;;;6.82;;
11348;SDS011;5729;43.570;27.826;2023-05-27T11:17:13;9.52;;;6.97;;
11348;SDS011;5729;43.570;27.826;2023-05-27T11:19:38;10.00;;;7.45;;
11348;SDS011;5729;43.570;27.826;2023-05-27T11:22:05;10.65;;;7.32;;
11348;SDS011;5729;43.570;27.826;2023-05-27T11:24:31;11.00;;;7.28;;
11348;SDS011;5729;43.570;27.826;2023-05-27T11:26:56;10.90;;;8.25;;
11348;SDS011;5729;43.570;27.826;2023-05-27T11:29:22;10.70;;;8.32;;
11348;SDS011;5729;43.570;27.826;2023-05-27T11:31:48;17.02;;;8.93;;
11348;SDS011;5729;43.570;27.826;2023-05-27T11:34:14;11.48;;;8.98;;
11348;SDS011;5729;43.570;27.826;2023-05-27T11:36:41;14.27;;;9.98;;
11348;SDS011;5729;43.570;27.826;2023-05-27T11:39:10;10.00;;;8.88;;
11348;SDS011;5729;43.570;27.826;2023-05-27T11:41:48;10.35;;;7.43;;
11348;SDS011;5729;43.570;27.826;2023-05-27T11:44:15;10.20;;;7.75;;
11348;SDS011;5729;43.570;27.826;2023-05-27T11:46:42;9.50;;;7.40;;
11348;SDS011;5729;43.570;27.826;2023-05-27T11:49:09;9.32;;;7.00;;
11348;SDS011;5729;43.570;27.826;2023-05-27T11:51:36;8.43;;;6.93;;
11348;SDS011;5729;43.570;27.826;2023-05-27T11:54:04;10.25;;;8.13;;
11348;SDS011;5729;43.570;27.826;2023-05-27T11:56:30;9.52;;;7.75;;
11348;SDS011;5729;43.570;27.826;2023-05-27T11:58:56;11.95;;;8.00;;
11348;SDS011;5729;43.570;27.826;2023-05-27T12:01:22;12.68;;;9.23;;
11348;SDS011;5729;43.570;27.826;2023-05-27T12:03:47;15.73;;;9.43;;
11348;SDS011;5729;43.570;27.826;2023-05-27T12:06:13;17.85;;;8.60;;
11348;SDS011;5729;43.570;27.826;2023-05-27T12:08:38;10.63;;;7.45;;
11348;SDS011;5729;43.570;27.826;2023-05-27T12:11:05;11.25;;;7.55;;
11348;SDS011;5729;43.570;27.826;2023-05-27T12:13:31;10.05;;;8.18;;
11348;SDS011;5729;43.570;27.826;2023-05-27T12:15:57;18.33;;;8.65;;
11348;SDS011;5729;43.570;27.826;2023-05-27T12:18:23;13.68;;;8.32;;
11348;SDS011;5729;43.570;27.826;2023-05-27T12:20:49;11.90;;;7.88;;
11348;SDS011;5729;43.570;27.826;2023-05-27T12:23:15;11.52;;;7.80;;
11348;SDS011;5729;43.570;27.826;2023-05-27T12:25:40;13.23;;;9.13;;
11348;SDS011;5729;43.570;27.826;2023-05-27T12:28:06;8.75;;;7.65;;
11348;SDS011;5729;43.570;27.826;2023-05-27T12:30:33;9.65;;;5.55;;
11348;SDS011;5729;43.570;27.826;2023-05-27T12:32:58;5.75;;;5.15;;
11348;SDS011;5729;43.570;27.826;2023-05-27T12:35:24;7.38;;;6.03;;
11348;SDS011;5729;43.570;27.826;2023-05-27T12:37:50;8.38;;;6.18;;
11348;SDS011;5729;43.570;27.826;2023-05-27T12:40:15;9.50;;;7.78;;
11348;SDS011;5729;43.570;27.826;2023-05-27T12:42:41;12.57;;;7.78;;
11348;SDS011;5729;43.570;27.826;2023-05-27T12:45:08;12.20;;;8.23;;
11348;SDS011;5729;43.570;27.826;2023-05-27T12:47:34;9.43;;;8.00;;
11348;SDS011;5729;43.570;27.826;2023-05-27T12:50:00;9.30;;;7.97;;
11348;SDS011;5729;43.570;27.826;2023-05-27T12:52:25;7.95;;;7.03;;
11348;SDS011;5729;43.570;27.826;2023-05-27T12:54:51;8.85;;;7.20;;
11348;SDS011;5729;43.570;27.826;2023-05-27T12:57:16;10.75;;;8.52;;
11348;SDS011;5729;43.570;27.826;2023-05-27T12:59:42;14.88;;;8.18;;
11348;SDS011;5729;43.570;27.826;2023-05-27T13:02:07;12.40;;;7.97;;
11348;SDS011;5729;43.570;27.826;2023-05-27T13:04:33;11.10;;;8.15;;
11348;SDS011;5729;43.570;27.826;2023-05-27T13:06:58;9.40;;;8.13;;
11348;SDS011;5729;43.570;27.826;2023-05-27T13:09:24;9.52;;;8.10;;
11348;SDS011;5729;43.570;27.826;2023-05-27T13:11:50;10.38;;;8.05;;
11348;SDS011;5729;43.570;27.826;2023-05-27T13:14:15;10.13;;;7.93;;
11348;SDS011;5729;43.570;27.826;2023-05-27T13:16:41;9.38;;;8.00;;
11348;SDS011;5729;43.570;27.826;2023-05-27T13:19:06;8.77;;;7.18;;
11348;SDS011;5729;43.570;27.826;2023-05-27T13:21:31;8.88;;;7.05;;
11348;SDS011;5729;43.570;27.826;2023-05-27T13:23:57;7.25;;;6.40;;
11348;SDS011;5729;43.570;27.826;2023-05-27T13:26:22;10.10;;;6.97;;
11348;SDS011;5729;43.570;27.826;2023-05-27T13:28:48;8.05;;;5.95;;
11348;SDS011;5729;43.570;27.826;2023-05-27T13:31:14;8.60;;;6.15;;
11348;SDS011;5729;43.570;27.826;2023-05-27T13:33:41;12.98;;;7.38;;
11348;SDS011;5729;43.570;27.826;2023-05-27T13:36:07;9.68;;;6.72;;
11348;SDS011;5729;43.570;27.826;2023-05-27T13:38:32;9.00;;;7.10;;
11348;SDS011;5729;43.570;27.826;2023-05-27T13:40:58;11.52;;;7.60;;
11348;SDS011;5729;43.570;27.826;2023-05-27T13:43:27;7.88;;;6.35;;
11348;SDS011;5729;43.570;27.826;2023-05-27T13:45:52;5.90;;;5.15;;
11348;SDS011;5729;43.570;27.826;2023-05-27T13:48:18;7.13;;;6.00;;
11348;SDS011;5729;43.570;27.826;2023-05-27T13:50:43;8.63;;;6.22;;
11348;SDS011;5729;43.570;27.826;2023-05-27T13:53:09;4.85;;;4.43;;
11348;SDS011;5729;43.570;27.826;2023-05-27T13:55:34;6.38;;;5.70;;
11348;SDS011;5729;43.570;27.826;2023-05-27T13:58:00;6.28;;;5.45;;
11348;SDS011;5729;43.570;27.826;2023-05-27T14:00:25;6.82;;;5.20;;
11348;SDS011;5729;43.570;27.826;2023-05-27T14:02:51;6.03;;;5.10;;
11348;SDS011;5729;43.570;27.826;2023-05-27T14:05:19;8.52;;;5.57;;
11348;SDS011;5729;43.570;27.826;2023-05-27T14:07:45;7.32;;;4.57;;
11348;SDS011;5729;43.570;27.826;2023-05-27T14:10:11;8.90;;;5.63;;
11348;SDS011;5729;43.570;27.826;2023-05-27T14:12:37;5.97;;;4.80;;
11348;SDS011;5729;43.570;27.826;2023-05-27T14:15:04;6.30;;;5.70;;
11348;SDS011;5729;43.570;27.826;2023-05-27T14:17:30;6.93;;;5.43;;
11348;SDS011;5729;43.570;27.826;2023-05-27T14:19:56;7.47;;;6.30;;
11348;SDS011;5729;43.570;27.826;2023-05-27T14:22:23;6.90;;;5.70;;
11348;SDS011;5729;43.570;27.826;2023-05-27T14:24:50;6.07;;;4.78;;
11348;SDS011;5729;43.570;27.826;2023-05-27T14:27:16;5.53;;;4.97;;
11348;SDS011;5729;43.570;27.826;2023-05-27T14:29:41;8.10;;;5.57;;
11348;SDS011;5729;43.570;27.826;2023-05-27T14:32:08;7.57;;;5.63;;
11348;SDS011;5729;43.570;27.826;2023-05-27T14:34:34;6.63;;;5.40;;
11348;SDS011;5729;43.570;27.826;2023-05-27T14:37:00;9.25;;;5.53;;
11348;SDS011;5729;43.570;27.826;2023-05-27T14:39:25;8.30;;;5.82;;
11348;SDS011;5729;43.570;27.826;2023-05-27T14:41:51;7.10;;;6.22;;
11348;SDS011;5729;43.570;27.826;2023-05-27T14:44:16;6.90;;;6.20;;
11348;SDS011;5729;43.570;27.826;2023-05-27T14:46:42;5.38;;;4.88;;
11348;SDS011;5729;43.570;27.826;2023-05-27T14:49:07;5.95;;;4.93;;
11348;SDS011;5729;43.570;27.826;2023-05-27T14:51:33;6.57;;;4.78;;